Time;durP1;ratioP1;P1;durP2;ratioP2;P2;SDS_P1;SDS_P2;PMS_P1;PMS_P2;Temp;Humidity;BMP_temperature;BMP_pressure;BME280_temperature;BME280_humidity;BME280_pressure;Samples;Min_cycle;Max_cycle;Signal;HPM_P1;HPM_P2
2021/04/03 00:01:14;;;;;;;18.90;3.28;;;;;;;3.38;81.44;102081.03;6346197;28;20058;-76
2021/04/03 00:04:15;;;;;;;19.35;2.25;;;;;;;3.43;80.06;102078.41;6346311;28;20051;-76
2021/04/03 00:07:16;;;;;;;24.40;3.08;;;;;;;3.43;80.26;102086.22;6346190;28;20540;-76
2021/04/03 00:10:25;;;;;;;20.38;2.35;;;;;;;3.45;80.51;102077.56;6346454;28;20049;-76
2021/04/03 00:13:30;;;;;;;15.13;2.83;;;;;;;3.71;78.66;102082.66;6346074;28;20063;-76
2021/04/03 00:16:31;;;;;;;24.27;2.92;;;;;;;3.47;80.28;102072.34;6346322;28;20044;-75
2021/04/03 00:19:32;;;;;;;24.60;4.13;;;;;;;3.42;79.61;102077.56;6346046;28;20048;-75
2021/04/03 00:22:33;;;;;;;22.13;2.72;;;;;;;3.30;80.67;102078.44;6350242;28;20054;-76
2021/04/03 00:25:34;;;;;;;25.55;2.78;;;;;;;3.38;80.54;102073.22;6351398;28;20054;-76
2021/04/03 00:28:35;;;;;;;30.48;4.00;;;;;;;3.30;80.09;102072.38;6351406;28;20040;-76
2021/04/03 00:31:37;;;;;;;22.42;2.50;;;;;;;3.45;79.67;102076.66;6350871;28;20044;-76
2021/04/03 00:34:38;;;;;;;22.98;2.92;;;;;;;3.33;80.48;102090.56;6351191;28;20466;-76
2021/04/03 00:37:39;;;;;;;25.45;4.63;;;;;;;3.45;79.81;102082.75;6350870;28;20051;-76
2021/04/03 00:40:42;;;;;;;15.23;2.92;;;;;;;3.33;79.60;102085.38;6351364;28;20048;-76
2021/04/03 00:43:43;;;;;;;19.40;2.95;;;;;;;3.26;79.91;102092.28;6351089;28;20513;-76
2021/04/03 00:46:45;;;;;;;28.27;3.15;;;;;;;3.30;79.60;102087.97;6350667;28;20126;-76
2021/04/03 00:49:46;;;;;;;17.27;2.55;;;;;;;3.38;79.86;102088.81;6351034;28;20074;-76
2021/04/03 00:52:47;;;;;;;29.15;3.30;;;;;;;3.20;80.13;102092.31;6350358;28;20040;-75
2021/04/03 00:55:48;;;;;;;21.80;2.90;;;;;;;3.20;80.43;102089.72;6350640;28;20120;-76
2021/04/03 00:58:49;;;;;;;22.55;2.80;;;;;;;3.21;80.65;102085.38;6350425;28;20093;-77
2021/04/03 01:01:51;;;;;;;17.67;2.30;;;;;;;3.21;80.53;102083.66;6350513;28;20051;-76
2021/04/03 01:04:52;;;;;;;19.05;2.92;;;;;;;3.33;79.26;102085.38;6349949;28;20096;-76
2021/04/03 01:07:53;;;;;;;16.77;3.60;;;;;;;3.30;79.94;102086.22;6349690;28;20051;-76
2021/04/03 01:10:56;;;;;;;24.73;3.20;;;;;;;3.14;80.52;102094.94;6347969;28;20044;-76
2021/04/03 01:14:08;;;;;;;20.60;2.85;;;;;;;3.18;80.65;102099.25;6349956;28;20500;-77
2021/04/03 01:17:20;;;;;;;22.63;3.72;;;;;;;3.16;80.17;102105.31;6350158;28;20491;-75
2021/04/03 01:20:46;;;;;;;29.70;3.15;;;;;;;3.10;81.03;102090.59;6350254;28;20048;-76
2021/04/03 01:24:17;;;;;;;24.88;2.95;;;;;;;3.16;80.91;102090.59;6350155;28;20048;-75
2021/04/03 01:27:22;;;;;;;16.48;2.90;;;;;;;3.12;81.41;102098.38;6349601;28;20116;-75
2021/04/03 01:30:26;;;;;;;24.88;3.30;;;;;;;3.06;80.62;102112.25;6349645;28;20047;-75
2021/04/03 01:33:31;;;;;;;25.65;2.60;;;;;;;3.01;81.74;102101.84;6348933;28;20052;-76
2021/04/03 01:36:36;;;;;;;19.30;2.90;;;;;;;3.18;81.27;102099.25;6349535;28;20454;-75
2021/04/03 01:39:38;;;;;;;21.10;3.05;;;;;;;3.09;81.28;102106.16;6349795;28;20051;-76
2021/04/03 01:42:44;;;;;;;33.78;4.82;;;;;;;3.21;81.73;102100.97;6349205;28;20048;-76
2021/04/03 01:45:49;;;;;;;29.88;3.95;;;;;;;2.98;82.48;102100.97;6349534;28;20059;-75
2021/04/03 01:48:52;;;;;;;32.05;3.05;;;;;;;2.97;82.88;102101.84;6349459;28;20530;-76
2021/04/03 01:51:54;;;;;;;32.17;3.42;;;;;;;3.11;82.83;102107.91;6349241;28;20040;-76
2021/04/03 01:54:56;;;;;;;35.50;3.47;;;;;;;2.94;83.65;102097.50;6349385;28;20100;-76
2021/04/03 01:57:58;;;;;;;44.97;3.60;;;;;;;3.01;83.77;102095.81;6349234;28;20055;-76
2021/04/03 02:01:01;;;;;;;33.17;3.55;;;;;;;2.97;84.58;102097.53;6348884;28;20051;-75
2021/04/03 02:04:02;;;;;;;24.85;3.63;;;;;;;2.91;84.68;102113.13;6348786;28;20484;-76
2021/04/03 02:07:04;;;;;;;31.55;3.25;;;;;;;3.00;84.57;102112.25;6348896;28;20050;-75
2021/04/03 02:10:07;;;;;;;30.45;3.53;;;;;;;2.96;84.80;102108.78;6349143;28;20047;-75
2021/04/03 02:13:08;;;;;;;35.53;4.00;;;;;;;2.83;86.24;102103.59;6348655;28;20043;-76
2021/04/03 02:16:12;;;;;;;27.67;4.40;;;;;;;2.82;86.42;102105.31;6348969;28;20043;-76
2021/04/03 02:19:13;;;;;;;31.35;4.10;;;;;;;2.83;86.92;102104.44;6348856;28;20051;-75
2021/04/03 02:22:15;;;;;;;31.00;4.32;;;;;;;2.78;87.81;102113.97;6348703;28;20046;-76
2021/04/03 02:25:17;;;;;;;23.50;3.55;;;;;;;2.86;86.83;102112.25;6348585;28;20088;-75
2021/04/03 02:28:19;;;;;;;23.42;3.17;;;;;;;2.77;87.17;102117.41;6348700;28;20052;-76
2021/04/03 02:31:20;;;;;;;23.30;3.15;;;;;;;2.89;87.17;102120.03;6348043;28;20418;-76
2021/04/03 02:34:21;;;;;;;34.47;3.83;;;;;;;2.74;88.06;102130.41;6348424;28;20470;-76
2021/04/03 02:37:22;;;;;;;26.45;4.55;;;;;;;2.74;88.57;102133.00;6348133;28;20076;-76
2021/04/03 02:40:27;;;;;;;24.98;3.60;;;;;;;2.76;88.58;102131.25;6348189;28;20044;-75
2021/04/03 02:43:33;;;;;;;31.88;4.32;;;;;;;2.77;88.11;102141.66;6347868;28;20059;-76
2021/04/03 02:46:41;;;;;;;49.00;7.07;;;;;;;2.82;88.84;102131.28;6347992;28;20052;-76
2021/04/03 02:49:50;;;;;;;41.88;4.15;;;;;;;2.78;89.07;102133.00;6348244;28;20048;-76
2021/04/03 02:52:53;;;;;;;35.77;4.40;;;;;;;2.78;89.53;102137.34;6347625;28;20522;-76
2021/04/03 02:55:56;;;;;;;33.97;4.55;;;;;;;2.83;89.41;102139.94;6347836;28;20281;-75
2021/04/03 02:58:59;;;;;;;45.53;3.72;;;;;;;2.82;89.72;102136.47;6347768;28;20043;-75
2021/04/03 03:02:03;;;;;;;33.75;3.92;;;;;;;2.82;89.19;102133.88;6347645;28;20089;-75
2021/04/03 03:05:06;;;;;;;32.75;4.60;;;;;;;2.76;90.33;102137.31;6347277;28;20067;-75
2021/04/03 03:08:08;;;;;;;32.00;4.28;;;;;;;2.76;90.56;102137.31;6347212;28;20530;-76
2021/04/03 03:11:09;;;;;;;31.73;3.78;;;;;;;2.77;90.95;102138.16;6347158;28;20055;-76
2021/04/03 03:14:13;;;;;;;31.45;4.18;;;;;;;2.77;91.03;102126.09;6347441;28;20168;-75
2021/04/03 03:17:15;;;;;;;39.47;5.53;;;;;;;2.80;91.19;102117.41;6347241;28;20047;-75
2021/04/03 03:20:16;;;;;;;23.33;3.28;;;;;;;2.82;91.20;102122.59;6347550;28;20058;-75
2021/04/03 03:23:18;;;;;;;47.05;4.53;;;;;;;2.78;90.73;102124.34;6346856;28;20139;-75
2021/04/03 03:26:19;;;;;;;38.40;5.55;;;;;;;2.70;91.93;102126.94;6347281;28;20055;-75
2021/04/03 03:29:22;;;;;;;25.38;3.63;;;;;;;2.69;91.69;102129.53;6346996;28;20518;-76
2021/04/03 03:32:24;;;;;;;26.88;4.22;;;;;;;2.72;91.90;102129.50;6347173;28;20047;-76
2021/04/03 03:35:25;;;;;;;36.35;5.00;;;;;;;2.67;91.89;102124.31;6346974;28;20047;-76
2021/04/03 03:38:26;;;;;;;32.97;3.80;;;;;;;2.67;92.56;102123.47;6346978;28;20048;-75
2021/04/03 03:41:29;;;;;;;42.72;5.55;;;;;;;2.74;92.55;102127.81;6346870;28;20052;-75
2021/04/03 03:44:31;;;;;;;29.73;4.75;;;;;;;2.60;92.69;102130.38;6347035;28;20089;-75
2021/04/03 03:47:33;;;;;;;45.97;4.75;;;;;;;2.60;92.48;102119.13;6346855;28;20130;-75
2021/04/03 03:50:34;;;;;;;35.95;5.13;;;;;;;2.52;93.68;102130.34;6346586;28;20518;-76
2021/04/03 03:53:35;;;;;;;39.03;4.78;;;;;;;2.53;93.88;102131.22;6346383;28;20130;-76
2021/04/03 03:56:36;;;;;;;51.75;5.68;;;;;;;2.58;93.43;102129.50;6346155;28;20047;-76
2021/04/03 03:59:37;;;;;;;35.40;5.93;;;;;;;2.42;93.33;102131.22;6346577;28;20051;-76
2021/04/03 04:02:39;;;;;;;42.88;4.60;;;;;;;2.37;94.05;102138.13;6345994;28;20627;-75
2021/04/03 04:05:40;;;;;;;36.80;4.28;;;;;;;2.46;94.48;102145.06;6346588;28;20055;-76
2021/04/03 04:08:43;;;;;;;41.22;5.10;;;;;;;2.35;94.43;102155.38;6346571;28;20052;-76
2021/04/03 04:11:43;;;;;;;49.05;4.90;;;;;;;2.29;95.39;102151.03;6346341;28;20126;-76
2021/04/03 04:14:44;;;;;;;52.38;5.55;;;;;;;2.34;95.23;102156.25;6346426;28;20177;-76
2021/04/03 04:17:46;;;;;;;41.08;4.20;;;;;;;2.32;95.87;102160.59;6346269;28;20507;-76
2021/04/03 04:20:47;;;;;;;37.78;5.32;;;;;;;2.41;95.55;102159.75;6346044;28;20412;-76
2021/04/03 04:23:48;;;;;;;39.70;5.07;;;;;;;2.21;95.97;102163.13;6346349;28;20063;-76
2021/04/03 04:26:49;;;;;;;56.13;5.65;;;;;;;2.20;96.96;102170.91;6346320;28;20047;-76
2021/04/03 04:29:50;;;;;;;45.40;6.75;;;;;;;2.25;97.29;102174.38;6346096;28;20388;-75
2021/04/03 04:32:52;;;;;;;37.97;4.07;;;;;;;2.19;97.08;102185.59;6346028;28;20051;-75
2021/04/03 04:35:53;;;;;;;36.72;5.88;;;;;;;2.24;96.64;102183.88;6346449;28;20116;-76
2021/04/03 04:38:54;;;;;;;42.33;5.93;;;;;;;2.17;96.94;102184.69;6346133;28;20043;-76
2021/04/03 04:41:55;;;;;;;47.08;5.40;;;;;;;2.11;96.89;102194.19;6345846;28;20044;-75
2021/04/03 04:44:56;;;;;;;49.88;5.78;;;;;;;2.13;96.96;102193.31;6346196;28;20050;-76
2021/04/03 04:47:57;;;;;;;48.75;6.95;;;;;;;2.20;97.57;102200.28;6346304;28;20054;-76
2021/04/03 04:50:58;;;;;;;53.20;6.80;;;;;;;2.23;98.67;102202.91;6345587;28;20048;-76
2021/04/03 04:53:59;;;;;;;47.80;6.18;;;;;;;2.47;98.69;102203.84;6346001;28;20077;-75
2021/04/03 04:57:00;;;;;;;49.70;6.90;;;;;;;2.28;99.25;102208.13;6345875;28;20109;-75
2021/04/03 05:00:01;;;;;;;57.55;6.18;;;;;;;2.24;99.50;102208.97;6346211;28;20553;-75
2021/04/03 05:03:03;;;;;;;44.05;6.50;;;;;;;2.26;99.55;102215.00;6345518;28;20058;-75
2021/04/03 05:06:05;;;;;;;66.53;7.57;;;;;;;2.34;100.00;102205.53;6345947;28;20133;-75
2021/04/03 05:09:06;;;;;;;59.22;9.80;;;;;;;2.43;100.00;102217.69;6339054;22;20141;-77
2021/04/03 05:12:07;;;;;;;62.22;7.55;;;;;;;2.57;100.00;102218.59;6254631;28;20490;-76
2021/04/03 05:15:10;;;;;;;52.53;8.80;;;;;;;2.53;100.00;102219.44;6237926;28;20053;-76
2021/04/03 05:18:11;;;;;;;99.88;11.35;;;;;;;2.63;100.00;102216.00;6241655;28;20056;-76
2021/04/03 05:21:12;;;;;;;66.03;10.35;;;;;;;2.83;100.00;102220.41;6245661;28;20050;-76
2021/04/03 05:24:13;;;;;;;80.95;12.68;;;;;;;2.82;100.00;102242.00;6225300;28;20165;-76
2021/04/03 05:27:14;;;;;;;82.25;13.02;;;;;;;2.78;100.00;102239.44;6225318;28;20057;-77
2021/04/03 05:30:16;;;;;;;82.15;14.13;;;;;;;2.78;100.00;102243.75;6231397;28;20077;-76
2021/04/03 05:33:18;;;;;;;73.65;13.15;;;;;;;2.87;100.00;102243.78;6246229;28;20490;-76
2021/04/03 05:36:19;;;;;;;86.28;15.27;;;;;;;2.95;100.00;102256.75;6249692;28;20060;-76
2021/04/03 05:39:19;;;;;;;89.30;14.13;;;;;;;2.91;100.00;102260.25;6249860;28;20050;-76
2021/04/03 05:42:21;;;;;;;70.10;13.43;;;;;;;2.94;100.00;102263.69;6249443;28;20142;-76
2021/04/03 05:45:24;;;;;;;82.43;17.05;;;;;;;3.07;100.00;102272.38;6249654;28;20045;-76
2021/04/03 05:48:27;;;;;;;61.28;13.63;;;;;;;3.39;100.00;102279.38;6249255;28;20054;-77
2021/04/03 05:51:28;;;;;;;66.53;13.82;;;;;;;3.09;100.00;102283.66;6249135;28;20560;-76
2021/04/03 05:54:29;;;;;;;55.20;12.80;;;;;;;3.24;100.00;102285.41;6249159;28;20049;-76
2021/04/03 05:57:30;;;;;;;73.38;14.05;;;;;;;3.17;100.00;102287.13;6249370;28;20632;-76
2021/04/03 06:00:31;;;;;;;75.68;15.85;;;;;;;3.22;100.00;102298.38;6249228;28;20104;-76
2021/04/03 06:03:34;;;;;;;68.63;15.85;;;;;;;3.24;100.00;102298.41;6248950;28;20046;-77
2021/04/03 06:06:35;;;;;;;66.50;15.60;;;;;;;3.31;100.00;102297.53;6249055;28;20042;-76
2021/04/03 06:09:37;;;;;;;54.30;16.13;;;;;;;3.38;100.00;102308.81;6248699;28;20553;-76
2021/04/03 06:12:39;;;;;;;65.20;14.80;;;;;;;3.55;100.00;102310.56;6245281;28;20041;-77
2021/04/03 06:15:40;;;;;;;67.07;15.35;;;;;;;3.47;100.00;102304.50;6237036;28;20050;-80
2021/04/03 06:18:42;;;;;;;63.67;15.70;;;;;;;3.47;100.00;102314.88;6223907;28;20572;-76
2021/04/03 06:21:45;;;;;;;49.78;13.43;;;;;;;3.46;100.00;102313.16;6223923;28;20100;-77
2021/04/03 06:24:46;;;;;;;60.85;13.65;;;;;;;3.58;100.00;102322.69;6224150;28;20060;-76
2021/04/03 06:27:47;;;;;;;55.35;13.38;;;;;;;3.49;100.00;102330.47;6224137;28;20129;-76
2021/04/03 06:30:48;;;;;;;60.03;13.13;;;;;;;3.76;100.00;102327.03;6223842;28;20054;-76
2021/04/03 06:33:50;;;;;;;68.13;15.77;;;;;;;3.59;100.00;102336.56;6223825;28;20537;-77
2021/04/03 06:36:51;;;;;;;46.35;14.07;;;;;;;3.69;100.00;102343.50;6223997;28;20049;-77
2021/04/03 06:39:58;;;;;;;67.28;14.20;;;;;;;3.74;100.00;102339.19;6223540;28;20052;-76
2021/04/03 06:42:59;;;;;;;52.25;13.65;;;;;;;3.76;100.00;102345.25;6223591;28;20050;-77
2021/04/03 06:46:00;;;;;;;68.38;14.18;;;;;;;3.78;100.00;102352.19;6223212;28;20050;-77
2021/04/03 06:49:03;;;;;;;55.83;13.27;;;;;;;3.75;100.00;102351.31;6222662;28;20057;-76
2021/04/03 06:52:04;;;;;;;43.50;11.77;;;;;;;3.99;100.00;102353.03;6223275;28;20053;-76
2021/04/03 06:55:07;;;;;;;44.60;12.60;;;;;;;3.91;100.00;102350.47;6223313;28;20072;-76
2021/04/03 06:58:09;;;;;;;44.38;12.05;;;;;;;4.02;100.00;102368.66;6223351;28;20506;-77
2021/04/03 07:01:11;;;;;;;49.33;11.82;;;;;;;4.04;100.00;102373.00;6222909;28;20111;-77
2021/04/03 07:04:22;;;;;;;46.15;11.88;;;;;;;4.22;100.00;102379.03;6222897;28;20391;-76
2021/04/03 07:07:28;;;;;;;51.05;10.48;;;;;;;4.22;100.00;102368.63;6223355;28;20049;-77
2021/04/03 07:10:30;;;;;;;44.83;11.73;;;;;;;4.23;100.00;102375.59;6223122;28;20053;-77
2021/04/03 07:13:31;;;;;;;40.95;9.57;;;;;;;4.26;100.00;102371.22;6222635;28;20046;-77
2021/04/03 07:16:34;;;;;;;44.47;9.35;;;;;;;4.64;98.12;102374.66;6223118;28;20050;-78
2021/04/03 07:19:37;;;;;;;33.25;8.52;;;;;;;4.64;96.94;102370.31;6222680;28;20081;-78
2021/04/03 07:22:41;;;;;;;39.70;8.85;;;;;;;4.68;94.38;102376.34;6222719;28;20046;-78
2021/04/03 07:25:44;;;;;;;31.20;7.72;;;;;;;4.87;93.08;102375.44;6222568;28;20089;-78
2021/04/03 07:28:45;;;;;;;32.63;9.95;;;;;;;4.92;93.88;102378.03;6222698;28;20434;-78
2021/04/03 07:31:46;;;;;;;36.40;8.05;;;;;;;5.00;92.20;102379.75;6221701;28;20057;-79
2021/04/03 07:34:48;;;;;;;35.47;7.47;;;;;;;5.02;92.40;102371.91;6222837;28;20061;-75
2021/04/03 07:37:50;;;;;;;37.90;9.07;;;;;;;4.97;92.30;102381.50;6222595;28;20116;-78
2021/04/03 07:40:52;;;;;;;30.27;7.80;;;;;;;5.05;91.82;102383.19;6222333;28;20088;-77
2021/04/03 07:43:53;;;;;;;32.00;7.40;;;;;;;5.00;91.80;102395.38;6222413;28;20084;-78
2021/04/03 07:46:56;;;;;;;34.50;7.32;;;;;;;5.16;89.65;102387.50;6222534;28;20046;-78
2021/04/03 07:49:59;;;;;;;26.10;6.82;;;;;;;5.26;89.30;102395.25;6222222;28;20421;-76
2021/04/03 07:53:00;;;;;;;30.65;7.45;;;;;;;5.34;88.36;102392.59;6240912;28;20046;-77
2021/04/03 07:56:01;;;;;;;30.90;7.07;;;;;;;5.29;88.51;102392.63;6247284;28;20521;-77
2021/04/03 07:59:02;;;;;;;34.97;8.48;;;;;;;5.71;87.45;102390.66;6246842;28;20648;-78
2021/04/03 08:02:04;;;;;;;28.15;6.95;;;;;;;5.59;87.73;102385.53;6246895;28;20049;-76
2021/04/03 08:05:11;;;;;;;30.58;7.43;;;;;;;5.63;87.71;102394.19;6252810;28;20049;-77
2021/04/03 08:08:12;;;;;;;33.92;7.30;;;;;;;5.85;85.40;102393.16;6246898;28;20060;-77
2021/04/03 08:11:15;;;;;;;32.38;7.47;;;;;;;5.99;83.76;102400.91;6246395;28;20045;-77
2021/04/03 08:14:16;;;;;;;29.50;6.95;;;;;;;5.95;83.83;102396.59;6246648;28;20049;-77
2021/04/03 08:17:20;;;;;;;29.17;5.93;;;;;;;6.03;83.13;102398.25;6246442;28;20406;-76
2021/04/03 08:20:22;;;;;;;27.70;6.22;;;;;;;6.11;83.30;102403.44;6246737;28;20132;-77
2021/04/03 08:23:32;;;;;;;36.47;6.88;;;;;;;5.90;85.17;102403.56;6245988;28;20053;-77
2021/04/03 08:26:36;;;;;;;24.65;7.38;;;;;;;6.12;83.62;102407.78;6246547;28;20064;-77
2021/04/03 08:29:37;;;;;;;22.67;6.00;;;;;;;6.27;82.41;102401.59;6246127;28;20079;-77
2021/04/03 08:32:38;;;;;;;24.23;5.85;;;;;;;6.34;81.68;102401.50;6245097;28;20046;-77
2021/04/03 08:35:42;;;;;;;31.73;6.57;;;;;;;6.33;81.10;102410.22;6252200;28;20059;-77
2021/04/03 08:38:44;;;;;;;20.35;5.57;;;;;;;6.47;80.11;102404.84;6253984;28;20050;-77
2021/04/03 08:41:47;;;;;;;20.98;5.65;;;;;;;6.45;79.31;102405.75;6250010;28;20048;-78
2021/04/03 08:44:48;;;;;;;26.98;5.10;;;;;;;6.66;79.46;102408.16;6255776;28;20045;-79
2021/04/03 08:47:50;;;;;;;18.85;5.10;;;;;;;6.56;77.90;102407.38;6250968;28;20053;-79
2021/04/03 08:50:52;;;;;;;14.30;4.53;;;;;;;6.61;77.47;102397.75;6250518;28;20135;-78
2021/04/03 08:53:54;;;;;;;16.42;4.88;;;;;;;6.57;78.41;102397.78;6258981;28;20402;-77
2021/04/03 08:56:55;;;;;;;14.93;4.65;;;;;;;6.80;76.88;102392.31;6250276;28;20050;-77
2021/04/03 08:59:58;;;;;;;21.50;5.38;;;;;;;6.91;75.89;102387.00;6249518;28;20103;-77
2021/04/03 09:02:59;;;;;;;19.95;4.60;;;;;;;7.14;73.53;102384.09;6250090;28;20053;-78
2021/04/03 09:06:02;;;;;;;19.67;4.50;;;;;;;7.36;73.23;102382.94;6250026;28;20057;-83
2021/04/03 09:09:07;;;;;;;23.75;6.22;;;;;;;7.41;75.78;102383.72;6250251;28;20050;-78
2021/04/03 09:12:10;;;;;;;22.27;5.85;;;;;;;7.26;75.87;102374.31;6257987;28;20049;-78
2021/04/03 09:15:12;;;;;;;21.65;6.50;;;;;;;7.38;77.24;102378.53;6250462;28;20050;-78
2021/04/03 09:18:13;;;;;;;29.63;7.22;;;;;;;7.45;76.18;102377.56;6250053;28;20095;-79
2021/04/03 09:21:22;;;;;;;26.15;7.00;;;;;;;7.72;75.18;102380.63;6249669;28;20406;-78
2021/04/03 09:24:33;;;;;;;;;;;;;;;7.75;74.24;102385.84;6250409;28;20057;-76
2021/04/03 09:27:35;;;;;;;18.02;5.70;;;;;;;7.89;71.29;102382.13;6249339;28;20388;-78
2021/04/03 09:30:38;;;;;;;18.65;5.50;;;;;;;7.92;71.25;102391.69;6247751;28;20541;-78
2021/04/03 09:33:47;;;;;;;16.35;5.20;;;;;;;7.77;72.95;102382.31;6248757;28;20603;-78
2021/04/03 09:36:50;;;;;;;16.02;4.72;;;;;;;8.18;68.19;102382.53;6249357;28;20147;-78
2021/04/03 09:39:53;;;;;;;16.77;4.15;;;;;;;8.16;67.29;102384.31;6249348;28;20049;-78
2021/04/03 09:42:55;;;;;;;13.00;4.03;;;;;;;8.36;67.92;102384.84;6248546;28;20124;-78
2021/04/03 09:45:57;;;;;;;16.38;4.10;;;;;;;8.37;65.74;102378.75;6249444;28;20076;-78
2021/04/03 09:48:58;;;;;;;16.17;4.97;;;;;;;8.64;64.37;102378.22;6249496;28;20049;-78
2021/04/03 09:52:00;;;;;;;9.15;3.67;;;;;;;8.64;63.69;102385.22;6248879;28;20050;-78
2021/04/03 09:55:01;;;;;;;13.90;3.60;;;;;;;8.76;61.12;102382.34;6248654;28;20050;-78
2021/04/03 09:58:02;;;;;;;11.43;3.72;;;;;;;8.63;60.77;102381.75;6246662;28;20073;-77
2021/04/03 10:01:04;;;;;;;16.25;2.95;;;;;;;8.91;57.84;102372.47;6231228;28;20050;-78
2021/04/03 10:04:05;;;;;;;5.45;2.08;;;;;;;8.82;56.38;102373.53;6229744;28;20510;-78
2021/04/03 10:07:07;;;;;;;9.65;2.65;;;;;;;8.83;58.08;102370.88;6224610;28;20061;-77
2021/04/03 10:10:08;;;;;;;11.75;2.67;;;;;;;9.18;57.68;102371.91;6224244;28;20061;-77
2021/04/03 10:13:09;;;;;;;14.82;2.97;;;;;;;9.19;56.92;102375.38;6233648;28;20098;-75
2021/04/03 10:16:10;;;;;;;6.28;2.72;;;;;;;9.13;57.12;102368.53;6244275;28;20048;-78
2021/04/03 10:19:11;;;;;;;12.98;2.80;;;;;;;9.39;56.75;102374.03;6254164;28;20049;-78
2021/04/03 10:22:13;;;;;;;6.38;2.50;;;;;;;9.56;54.15;102370.19;6255205;28;20111;-77
2021/04/03 10:25:15;;;;;;;7.65;2.13;;;;;;;9.29;55.92;102375.16;6248659;28;20079;-77
2021/04/03 10:28:16;;;;;;;12.35;3.33;;;;;;;9.55;54.63;102374.56;6248524;28;20057;-77
2021/04/03 10:31:17;;;;;;;8.07;1.88;;;;;;;9.86;51.81;102379.13;6233102;28;20042;-77
2021/04/03 10:34:18;;;;;;;7.60;2.08;;;;;;;9.87;52.23;102384.31;6223785;28;20511;-79
2021/04/03 10:37:20;;;;;;;14.57;2.35;;;;;;;9.79;53.81;102388.88;6223925;28;20060;-78
2021/04/03 10:40:21;;;;;;;10.90;2.45;;;;;;;9.94;52.79;102385.00;6223613;28;20466;-78
2021/04/03 10:43:21;;;;;;;9.65;2.58;;;;;;;10.05;53.86;102390.03;6223588;28;20050;-79
2021/04/03 10:46:22;;;;;;;6.32;2.03;;;;;;;9.97;51.91;102382.31;6223459;28;20461;-77
2021/04/03 10:49:24;;;;;;;13.07;2.92;;;;;;;10.00;53.27;102381.41;6223498;28;20050;-77
2021/04/03 10:52:25;;;;;;;15.30;2.88;;;;;;;10.29;51.04;102383.31;6223006;28;20054;-77
2021/04/03 10:55:26;;;;;;;3.55;1.40;;;;;;;10.35;47.33;102386.63;6223539;28;20050;-77
2021/04/03 10:58:27;;;;;;;6.95;1.65;;;;;;;10.59;47.35;102381.66;6223217;28;20465;-77
2021/04/03 11:01:28;;;;;;;8.38;2.22;;;;;;;10.65;49.72;102376.22;6223092;28;20104;-77
2021/04/03 11:04:29;;;;;;;10.10;2.17;;;;;;;10.46;49.14;102380.25;6222936;28;20153;-77
2021/04/03 11:07:31;;;;;;;8.70;1.63;;;;;;;10.68;49.63;102380.53;6222348;28;20046;-77
2021/04/03 11:10:32;;;;;;;7.15;1.73;;;;;;;10.95;48.38;102379.75;6311691;23;20070;-75
2021/04/03 11:13:33;;;;;;;4.32;1.23;;;;;;;11.05;43.91;102370.69;6309455;28;20048;-74
2021/04/03 11:16:34;;;;;;;5.30;1.90;;;;;;;10.90;42.78;102373.75;6319289;28;20075;-74
2021/04/03 11:19:35;;;;;;;9.02;1.70;;;;;;;10.97;44.13;102374.44;6308959;28;20136;-74
2021/04/03 11:22:37;;;;;;;4.32;1.38;;;;;;;11.05;43.35;102372.47;6282919;28;20045;-74
2021/04/03 11:25:38;;;;;;;4.95;1.52;;;;;;;10.79;45.00;102376.69;6291654;28;20044;-74
2021/04/03 11:28:40;;;;;;;5.93;1.33;;;;;;;11.16;42.00;102373.84;6290563;28;20045;-74
2021/04/03 11:31:40;;;;;;;6.50;1.73;;;;;;;11.28;44.16;102366.50;6295891;28;20044;-74
2021/04/03 11:34:42;;;;;;;5.22;1.55;;;;;;;11.24;45.56;102367.50;6296867;28;20105;-74
2021/04/03 11:37:45;;;;;;;7.63;1.77;;;;;;;11.71;44.06;102365.16;6296411;28;20543;-75
2021/04/03 11:40:46;;;;;;;6.80;1.92;;;;;;;11.55;43.84;102364.81;6296341;28;20094;-75
2021/04/03 11:43:46;;;;;;;14.85;2.28;;;;;;;12.07;45.78;102368.41;6296378;28;20052;-74
2021/04/03 11:46:47;;;;;;;6.22;2.00;;;;;;;12.70;42.03;102359.16;6292107;28;20048;-72
2021/04/03 11:49:48;;;;;;;4.57;1.80;;;;;;;12.42;41.40;102357.50;6278093;28;20045;-72
2021/04/03 11:52:50;;;;;;;11.40;2.40;;;;;;;11.80;42.29;102356.97;6284115;28;20041;-74
2021/04/03 11:55:51;;;;;;;5.93;2.83;;;;;;;11.49;44.22;102359.72;6288488;28;20051;-74
2021/04/03 11:58:52;;;;;;;7.55;1.92;;;;;;;11.45;43.99;102351.06;6275223;28;20052;-77
2021/04/03 12:01:53;;;;;;;6.78;2.38;;;;;;;11.92;43.86;102354.81;6279268;28;20045;-73
2021/04/03 12:04:57;;;;;;;7.45;2.10;;;;;;;12.30;43.29;102354.44;6271054;28;20505;-72
2021/04/03 12:07:58;;;;;;;8.85;2.20;;;;;;;12.43;44.61;102346.03;6271230;28;20053;-75
2021/04/03 12:10:59;;;;;;;3.72;1.83;;;;;;;12.94;43.50;102344.19;6270687;28;20421;-73
2021/04/03 12:14:00;;;;;;;8.93;1.67;;;;;;;12.41;41.14;102350.53;6276796;28;20047;-76
2021/04/03 12:17:02;;;;;;;8.57;1.67;;;;;;;11.58;43.74;102351.53;6288737;28;20505;-76
2021/04/03 12:20:04;;;;;;;4.75;1.25;;;;;;;12.03;44.24;102343.91;6301181;28;20493;-76
2021/04/03 12:23:06;;;;;;;6.13;1.30;;;;;;;12.56;41.49;102335.91;6300874;28;20048;-73
2021/04/03 12:26:07;;;;;;;6.18;1.27;;;;;;;12.75;42.07;102324.69;6300856;28;20055;-74
2021/04/03 12:29:08;;;;;;;6.10;1.95;;;;;;;12.70;44.08;102338.06;6293491;28;20492;-72
2021/04/03 12:32:09;;;;;;;11.63;2.08;;;;;;;12.05;44.04;102344.75;6275201;28;20041;-76
2021/04/03 12:35:11;;;;;;;7.35;1.55;;;;;;;11.90;44.29;102342.63;6276083;28;20056;-76
2021/04/03 12:38:13;;;;;;;4.82;1.50;;;;;;;12.31;43.73;102340.34;6275692;28;20049;-77
2021/04/03 12:41:14;;;;;;;7.85;2.63;;;;;;;12.58;43.20;102327.94;6275639;28;20091;-77
2021/04/03 12:44:15;;;;;;;5.97;2.10;;;;;;;12.64;41.09;102333.88;6275438;28;20052;-78
2021/04/03 12:47:16;;;;;;;8.25;1.30;;;;;;;12.73;40.56;102329.19;6275711;28;20106;-76
2021/04/03 12:50:17;;;;;;;4.30;1.20;;;;;;;12.92;40.34;102319.66;6275689;28;20052;-78
2021/04/03 12:53:19;;;;;;;6.20;2.35;;;;;;;12.49;40.69;102337.06;6275042;28;20045;-78
2021/04/03 12:56:20;;;;;;;6.00;1.48;;;;;;;11.90;43.48;102329.47;6275495;28;20056;-75
2021/04/03 12:59:22;;;;;;;9.55;1.77;;;;;;;11.71;45.11;102333.56;6275014;28;20049;-78
2021/04/03 13:02:23;;;;;;;7.40;1.50;;;;;;;12.26;42.62;102329.09;6274915;28;20454;-75
2021/04/03 13:05:24;;;;;;;6.18;1.17;;;;;;;12.72;39.76;102317.78;6275582;28;20091;-78
2021/04/03 13:08:26;;;;;;;7.55;1.80;;;;;;;13.36;39.40;102312.69;6274898;28;20045;-74
2021/04/03 13:11:29;;;;;;;6.07;1.70;;;;;;;13.38;38.13;102304.69;6275100;28;20064;-74
2021/04/03 13:14:31;;;;;;;10.43;1.38;;;;;;;13.02;39.93;102310.47;6274889;28;20080;-76
2021/04/03 13:17:32;;;;;;;6.90;1.60;;;;;;;12.84;40.48;102308.53;6275025;28;20103;-76
2021/04/03 13:20:33;;;;;;;10.15;2.83;;;;;;;12.90;41.61;102301.25;6274904;28;20111;-76
2021/04/03 13:23:34;;;;;;;6.40;1.30;;;;;;;13.43;38.97;102308.00;6274618;28;20041;-74
2021/04/03 13:26:35;;;;;;;5.32;2.17;;;;;;;12.95;40.89;102301.06;6274595;28;20497;-76
2021/04/03 13:29:36;;;;;;;8.35;2.05;;;;;;;12.63;42.51;102307.56;6273567;28;20061;-75
2021/04/03 13:32:37;;;;;;;8.65;1.67;;;;;;;12.28;42.33;102300.91;6274201;28;20206;-75
2021/04/03 13:35:38;;;;;;;4.05;1.23;;;;;;;11.88;41.62;102294.38;6274402;28;20501;-76
2021/04/03 13:38:40;;;;;;;5.13;1.42;;;;;;;12.05;41.71;102299.09;6273958;28;20060;-76
2021/04/03 13:41:41;;;;;;;9.73;1.77;;;;;;;12.36;40.40;102283.91;6273346;28;20052;-77
2021/04/03 13:44:42;;;;;;;3.33;1.08;;;;;;;12.46;39.82;102295.00;6274526;28;20521;-77
2021/04/03 13:47:43;;;;;;;4.65;1.67;;;;;;;11.75;39.68;102293.91;6274327;28;20560;-77
2021/04/03 13:50:44;;;;;;;6.85;1.70;;;;;;;11.58;42.07;102283.06;6274103;28;20060;-77
2021/04/03 13:53:45;;;;;;;5.38;1.23;;;;;;;12.43;40.88;102281.91;6274294;28;20045;-77
2021/04/03 13:56:46;;;;;;;8.10;1.67;;;;;;;13.06;38.55;102279.53;6274050;28;20110;-77
2021/04/03 13:59:47;;;;;;;7.30;1.30;;;;;;;13.33;36.05;102274.97;6274055;28;20525;-77
2021/04/03 14:02:48;;;;;;;4.97;1.20;;;;;;;12.59;38.64;102277.78;6273504;28;20183;-77
2021/04/03 14:05:49;;;;;;;10.43;1.45;;;;;;;12.07;41.67;102271.75;6285462;28;20049;-77